sensor_id;sensor_type;location;lat;lon;timestamp;temperature;humidity
67379;DHT22;54262;44.642;-0.974;2023-02-01T00:01:38;6.20;94.70
67379;DHT22;54262;44.642;-0.974;2023-02-01T00:04:04;6.10;94.40
67379;DHT22;54262;44.642;-0.974;2023-02-01T00:06:29;6.00;94.40
67379;DHT22;54262;44.642;-0.974;2023-02-01T00:08:56;5.90;93.60
67379;DHT22;54262;44.642;-0.974;2023-02-01T00:11:22;5.50;93.20
67379;DHT22;54262;44.642;-0.974;2023-02-01T00:13:48;5.50;94.10
67379;DHT22;54262;44.642;-0.974;2023-02-01T00:16:36;5.50;94.30
67379;DHT22;54262;44.642;-0.974;2023-02-01T00:19:04;5.40;93.60
67379;DHT22;54262;44.642;-0.974;2023-02-01T00:21:30;5.20;93.90
67379;DHT22;54262;44.642;-0.974;2023-02-01T00:23:57;5.20;94.30
67379;DHT22;54262;44.642;-0.974;2023-02-01T00:26:34;5.30;94.40
67379;DHT22;54262;44.642;-0.974;2023-02-01T00:29:01;5.10;93.70
67379;DHT22;54262;44.642;-0.974;2023-02-01T00:31:27;5.00;94.50
67379;DHT22;54262;44.642;-0.974;2023-02-01T00:33:53;5.00;93.80
67379;DHT22;54262;44.642;-0.974;2023-02-01T00:36:18;4.90;94.00
67379;DHT22;54262;44.642;-0.974;2023-02-01T00:38:44;4.80;94.00
67379;DHT22;54262;44.642;-0.974;2023-02-01T00:41:14;4.70;93.70
67379;DHT22;54262;44.642;-0.974;2023-02-01T00:43:40;4.60;93.90
67379;DHT22;54262;44.642;-0.974;2023-02-01T00:46:10;4.60;93.70
67379;DHT22;54262;44.642;-0.974;2023-02-01T00:48:36;4.50;94.00
67379;DHT22;54262;44.642;-0.974;2023-02-01T00:51:07;4.50;94.20
67379;DHT22;54262;44.642;-0.974;2023-02-01T00:53:33;4.50;94.20
67379;DHT22;54262;44.642;-0.974;2023-02-01T00:55:59;4.50;93.70
67379;DHT22;54262;44.642;-0.974;2023-02-01T00:58:25;4.40;94.40
67379;DHT22;54262;44.642;-0.974;2023-02-01T01:01:08;4.40;94.70
67379;DHT22;54262;44.642;-0.974;2023-02-01T01:03:37;4.30;94.30
67379;DHT22;54262;44.642;-0.974;2023-02-01T01:06:06;4.20;94.50
67379;DHT22;54262;44.642;-0.974;2023-02-01T01:08:35;4.20;94.80
67379;DHT22;54262;44.642;-0.974;2023-02-01T01:11:07;4.20;95.00
67379;DHT22;54262;44.642;-0.974;2023-02-01T01:13:33;4.20;95.10
67379;DHT22;54262;44.642;-0.974;2023-02-01T01:16:01;4.20;95.40
67379;DHT22;54262;44.642;-0.974;2023-02-01T01:18:28;4.20;95.40
67379;DHT22;54262;44.642;-0.974;2023-02-01T01:20:54;4.20;95.30
67379;DHT22;54262;44.642;-0.974;2023-02-01T01:23:20;4.20;95.50
67379;DHT22;54262;44.642;-0.974;2023-02-01T01:25:46;4.30;95.60
67379;DHT22;54262;44.642;-0.974;2023-02-01T01:28:11;4.40;95.50
67379;DHT22;54262;44.642;-0.974;2023-02-01T01:30:38;4.50;95.30
67379;DHT22;54262;44.642;-0.974;2023-02-01T01:33:03;4.50;95.10
67379;DHT22;54262;44.642;-0.974;2023-02-01T01:35:30;4.60;95.00
67379;DHT22;54262;44.642;-0.974;2023-02-01T01:37:57;4.60;94.80
67379;DHT22;54262;44.642;-0.974;2023-02-01T01:40:23;4.90;95.20
67379;DHT22;54262;44.642;-0.974;2023-02-01T01:42:48;4.80;94.50
67379;DHT22;54262;44.642;-0.974;2023-02-01T01:45:31;4.80;94.50
67379;DHT22;54262;44.642;-0.974;2023-02-01T01:48:03;4.80;94.60
67379;DHT22;54262;44.642;-0.974;2023-02-01T01:50:33;4.90;94.70
67379;DHT22;54262;44.642;-0.974;2023-02-01T01:53:02;5.00;94.80
67379;DHT22;54262;44.642;-0.974;2023-02-01T01:55:32;5.20;94.90
67379;DHT22;54262;44.642;-0.974;2023-02-01T01:58:02;5.20;94.60
67379;DHT22;54262;44.642;-0.974;2023-02-01T02:00:31;5.10;94.30
67379;DHT22;54262;44.642;-0.974;2023-02-01T02:03:05;5.10;94.30
67379;DHT22;54262;44.642;-0.974;2023-02-01T02:05:32;5.10;94.20
67379;DHT22;54262;44.642;-0.974;2023-02-01T02:07:59;5.10;94.40
67379;DHT22;54262;44.642;-0.974;2023-02-01T02:10:27;5.20;94.40
67379;DHT22;54262;44.642;-0.974;2023-02-01T02:13:14;5.30;94.50
67379;DHT22;54262;44.642;-0.974;2023-02-01T02:15:45;5.30;94.30
67379;DHT22;54262;44.642;-0.974;2023-02-01T02:18:27;5.40;94.20
67379;DHT22;54262;44.642;-0.974;2023-02-01T02:26:38;5.40;94.20
67379;DHT22;54262;44.642;-0.974;2023-02-01T02:40:04;5.50;94.10
67379;DHT22;54262;44.642;-0.974;2023-02-01T02:42:38;5.50;94.30
67379;DHT22;54262;44.642;-0.974;2023-02-01T02:45:38;5.50;94.20
67379;DHT22;54262;44.642;-0.974;2023-02-01T02:48:50;5.50;94.30
67379;DHT22;54262;44.642;-0.974;2023-02-01T02:51:43;5.70;94.50
67379;DHT22;54262;44.642;-0.974;2023-02-01T02:54:32;5.70;94.10
67379;DHT22;54262;44.642;-0.974;2023-02-01T02:57:34;5.70;94.10
67379;DHT22;54262;44.642;-0.974;2023-02-01T03:00:23;5.60;94.00
67379;DHT22;54262;44.642;-0.974;2023-02-01T03:03:08;5.70;94.00
67379;DHT22;54262;44.642;-0.974;2023-02-01T03:05:52;5.70;94.00
67379;DHT22;54262;44.642;-0.974;2023-02-01T03:08:20;5.80;94.10
67379;DHT22;54262;44.642;-0.974;2023-02-01T03:11:07;5.80;94.20
67379;DHT22;54262;44.642;-0.974;2023-02-01T03:13:51;6.00;94.20
67379;DHT22;54262;44.642;-0.974;2023-02-01T03:19:22;6.10;93.90
67379;DHT22;54262;44.642;-0.974;2023-02-01T03:22:07;6.20;93.90
67379;DHT22;54262;44.642;-0.974;2023-02-01T03:32:09;6.20;93.90
67379;DHT22;54262;44.642;-0.974;2023-02-01T03:34:35;6.40;93.60
67379;DHT22;54262;44.642;-0.974;2023-02-01T03:37:10;6.20;93.40
67379;DHT22;54262;44.642;-0.974;2023-02-01T03:39:48;6.20;93.90
67379;DHT22;54262;44.642;-0.974;2023-02-01T03:42:24;6.30;93.30
67379;DHT22;54262;44.642;-0.974;2023-02-01T03:47:35;6.20;93.90
67379;DHT22;54262;44.642;-0.974;2023-02-01T03:50:05;6.20;93.60
67379;DHT22;54262;44.642;-0.974;2023-02-01T03:52:45;6.10;93.60
67379;DHT22;54262;44.642;-0.974;2023-02-01T03:55:15;6.10;93.90
67379;DHT22;54262;44.642;-0.974;2023-02-01T03:57:46;6.00;94.00
67379;DHT22;54262;44.642;-0.974;2023-02-01T04:00:21;6.20;93.50
67379;DHT22;54262;44.642;-0.974;2023-02-01T04:02:47;6.00;93.60
67379;DHT22;54262;44.642;-0.974;2023-02-01T04:05:13;6.00;94.00
67379;DHT22;54262;44.642;-0.974;2023-02-01T04:07:39;6.00;93.90
67379;DHT22;54262;44.642;-0.974;2023-02-01T04:10:05;6.10;94.00
67379;DHT22;54262;44.642;-0.974;2023-02-01T04:12:31;6.10;93.70
67379;DHT22;54262;44.642;-0.974;2023-02-01T04:14:56;6.10;93.90
67379;DHT22;54262;44.642;-0.974;2023-02-01T04:17:23;6.00;93.80
67379;DHT22;54262;44.642;-0.974;2023-02-01T04:19:49;5.90;94.00
67379;DHT22;54262;44.642;-0.974;2023-02-01T04:22:15;5.90;94.10
67379;DHT22;54262;44.642;-0.974;2023-02-01T04:24:41;5.90;94.00
67379;DHT22;54262;44.642;-0.974;2023-02-01T04:27:07;6.00;94.10
67379;DHT22;54262;44.642;-0.974;2023-02-01T04:29:32;6.00;94.00
67379;DHT22;54262;44.642;-0.974;2023-02-01T04:31:58;6.00;94.00
67379;DHT22;54262;44.642;-0.974;2023-02-01T04:34:24;6.00;94.30
67379;DHT22;54262;44.642;-0.974;2023-02-01T04:36:50;6.10;94.10
67379;DHT22;54262;44.642;-0.974;2023-02-01T04:39:16;6.10;93.90
67379;DHT22;54262;44.642;-0.974;2023-02-01T04:41:42;6.20;94.10
67379;DHT22;54262;44.642;-0.974;2023-02-01T04:44:16;6.30;93.40
67379;DHT22;54262;44.642;-0.974;2023-02-01T04:46:43;6.20;93.70
67379;DHT22;54262;44.642;-0.974;2023-02-01T04:49:13;6.10;93.70
67379;DHT22;54262;44.642;-0.974;2023-02-01T04:51:39;6.00;93.90
67379;DHT22;54262;44.642;-0.974;2023-02-01T04:54:05;6.00;94.10
67379;DHT22;54262;44.642;-0.974;2023-02-01T04:56:31;6.00;94.10
67379;DHT22;54262;44.642;-0.974;2023-02-01T04:58:58;6.10;94.00
67379;DHT22;54262;44.642;-0.974;2023-02-01T05:01:24;6.30;93.70
67379;DHT22;54262;44.642;-0.974;2023-02-01T05:03:50;6.30;93.70
67379;DHT22;54262;44.642;-0.974;2023-02-01T05:06:16;6.30;93.30
67379;DHT22;54262;44.642;-0.974;2023-02-01T05:08:41;6.30;93.60
67379;DHT22;54262;44.642;-0.974;2023-02-01T05:11:07;6.30;94.00
67379;DHT22;54262;44.642;-0.974;2023-02-01T05:13:53;6.50;93.60
67379;DHT22;54262;44.642;-0.974;2023-02-01T05:16:18;6.50;93.40
67379;DHT22;54262;44.642;-0.974;2023-02-01T05:18:44;6.40;93.20
67379;DHT22;54262;44.642;-0.974;2023-02-01T05:21:10;6.10;93.70
67379;DHT22;54262;44.642;-0.974;2023-02-01T05:23:36;6.10;93.90
67379;DHT22;54262;44.642;-0.974;2023-02-01T05:26:21;6.00;93.90
67379;DHT22;54262;44.642;-0.974;2023-02-01T05:28:47;5.90;94.00
67379;DHT22;54262;44.642;-0.974;2023-02-01T05:31:13;5.90;94.10
67379;DHT22;54262;44.642;-0.974;2023-02-01T05:33:38;5.90;94.20
67379;DHT22;54262;44.642;-0.974;2023-02-01T05:36:04;5.80;94.10
67379;DHT22;54262;44.642;-0.974;2023-02-01T05:38:30;5.90;94.00
67379;DHT22;54262;44.642;-0.974;2023-02-01T05:40:56;5.90;94.10
67379;DHT22;54262;44.642;-0.974;2023-02-01T05:43:22;6.10;93.80
67379;DHT22;54262;44.642;-0.974;2023-02-01T05:45:48;6.00;93.90
67379;DHT22;54262;44.642;-0.974;2023-02-01T05:48:13;6.00;93.90
67379;DHT22;54262;44.642;-0.974;2023-02-01T05:50:39;6.20;93.70
67379;DHT22;54262;44.642;-0.974;2023-02-01T05:53:05;6.10;93.90
67379;DHT22;54262;44.642;-0.974;2023-02-01T05:55:32;6.30;93.80
67379;DHT22;54262;44.642;-0.974;2023-02-01T05:57:57;6.30;93.40
67379;DHT22;54262;44.642;-0.974;2023-02-01T06:00:23;6.40;93.60
67379;DHT22;54262;44.642;-0.974;2023-02-01T06:02:49;6.30;93.40
67379;DHT22;54262;44.642;-0.974;2023-02-01T06:05:15;6.30;93.60
67379;DHT22;54262;44.642;-0.974;2023-02-01T06:07:40;6.30;93.80
67379;DHT22;54262;44.642;-0.974;2023-02-01T06:10:06;6.30;93.50
67379;DHT22;54262;44.642;-0.974;2023-02-01T06:12:32;6.20;93.70
67379;DHT22;54262;44.642;-0.974;2023-02-01T06:14:58;6.30;93.70
67379;DHT22;54262;44.642;-0.974;2023-02-01T06:17:24;6.30;93.70
67379;DHT22;54262;44.642;-0.974;2023-02-01T06:19:50;6.30;93.80
67379;DHT22;54262;44.642;-0.974;2023-02-01T06:22:16;6.20;93.70
67379;DHT22;54262;44.642;-0.974;2023-02-01T06:24:43;6.10;94.20
67379;DHT22;54262;44.642;-0.974;2023-02-01T06:27:08;6.10;93.80
67379;DHT22;54262;44.642;-0.974;2023-02-01T06:29:35;6.10;93.80
67379;DHT22;54262;44.642;-0.974;2023-02-01T06:32:01;6.20;93.90
67379;DHT22;54262;44.642;-0.974;2023-02-01T06:34:26;6.20;93.90
67379;DHT22;54262;44.642;-0.974;2023-02-01T06:36:52;6.20;93.90
67379;DHT22;54262;44.642;-0.974;2023-02-01T06:39:20;6.20;93.90
67379;DHT22;54262;44.642;-0.974;2023-02-01T06:41:47;6.10;94.00
67379;DHT22;54262;44.642;-0.974;2023-02-01T06:44:13;6.20;93.90
67379;DHT22;54262;44.642;-0.974;2023-02-01T06:46:39;6.20;93.90
67379;DHT22;54262;44.642;-0.974;2023-02-01T06:49:05;6.10;93.80
67379;DHT22;54262;44.642;-0.974;2023-02-01T06:51:30;6.10;93.90
67379;DHT22;54262;44.642;-0.974;2023-02-01T06:53:57;6.20;94.00
67379;DHT22;54262;44.642;-0.974;2023-02-01T06:56:23;6.20;94.00
67379;DHT22;54262;44.642;-0.974;2023-02-01T06:58:49;6.20;93.90
67379;DHT22;54262;44.642;-0.974;2023-02-01T07:01:15;6.20;94.00
67379;DHT22;54262;44.642;-0.974;2023-02-01T07:03:41;6.20;93.90
67379;DHT22;54262;44.642;-0.974;2023-02-01T07:06:08;6.20;93.90
67379;DHT22;54262;44.642;-0.974;2023-02-01T07:08:35;6.20;94.00
67379;DHT22;54262;44.642;-0.974;2023-02-01T07:11:06;6.20;94.00
67379;DHT22;54262;44.642;-0.974;2023-02-01T07:13:33;6.30;93.90
67379;DHT22;54262;44.642;-0.974;2023-02-01T07:16:03;6.30;93.90
67379;DHT22;54262;44.642;-0.974;2023-02-01T07:18:30;6.30;93.90
67379;DHT22;54262;44.642;-0.974;2023-02-01T07:20:56;6.30;93.80
67379;DHT22;54262;44.642;-0.974;2023-02-01T07:23:22;6.30;93.80
67379;DHT22;54262;44.642;-0.974;2023-02-01T07:25:59;6.30;93.70
67379;DHT22;54262;44.642;-0.974;2023-02-01T07:28:26;6.30;93.60
67379;DHT22;54262;44.642;-0.974;2023-02-01T07:30:53;6.30;93.80
67379;DHT22;54262;44.642;-0.974;2023-02-01T07:33:23;6.30;93.70
67379;DHT22;54262;44.642;-0.974;2023-02-01T07:35:50;6.30;93.60
67379;DHT22;54262;44.642;-0.974;2023-02-01T07:38:16;6.40;93.50
67379;DHT22;54262;44.642;-0.974;2023-02-01T07:40:42;6.40;93.50
67379;DHT22;54262;44.642;-0.974;2023-02-01T07:43:08;6.40;93.50
67379;DHT22;54262;44.642;-0.974;2023-02-01T07:45:35;6.40;93.50
67379;DHT22;54262;44.642;-0.974;2023-02-01T07:48:01;6.40;93.40
67379;DHT22;54262;44.642;-0.974;2023-02-01T07:50:27;6.30;93.50
67379;DHT22;54262;44.642;-0.974;2023-02-01T07:52:53;6.30;93.50
67379;DHT22;54262;44.642;-0.974;2023-02-01T07:55:19;6.40;93.50
67379;DHT22;54262;44.642;-0.974;2023-02-01T07:57:45;6.50;93.60
67379;DHT22;54262;44.642;-0.974;2023-02-01T08:00:11;6.50;93.40
67379;DHT22;54262;44.642;-0.974;2023-02-01T08:02:59;6.60;93.40
67379;DHT22;54262;44.642;-0.974;2023-02-01T08:05:26;6.60;93.20
67379;DHT22;54262;44.642;-0.974;2023-02-01T08:07:51;6.50;93.20
67379;DHT22;54262;44.642;-0.974;2023-02-01T08:10:18;6.50;93.50
67379;DHT22;54262;44.642;-0.974;2023-02-01T08:12:43;6.60;93.10
67379;DHT22;54262;44.642;-0.974;2023-02-01T08:15:14;6.60;93.20
67379;DHT22;54262;44.642;-0.974;2023-02-01T08:17:45;6.60;93.30
67379;DHT22;54262;44.642;-0.974;2023-02-01T08:20:11;6.60;93.60
67379;DHT22;54262;44.642;-0.974;2023-02-01T08:22:38;6.70;93.10
67379;DHT22;54262;44.642;-0.974;2023-02-01T08:25:05;6.60;93.10
67379;DHT22;54262;44.642;-0.974;2023-02-01T08:27:33;6.70;93.30
67379;DHT22;54262;44.642;-0.974;2023-02-01T08:29:59;6.70;93.10
67379;DHT22;54262;44.642;-0.974;2023-02-01T08:32:25;6.70;93.00
67379;DHT22;54262;44.642;-0.974;2023-02-01T08:34:51;6.70;93.10
67379;DHT22;54262;44.642;-0.974;2023-02-01T08:37:17;6.80;93.20
67379;DHT22;54262;44.642;-0.974;2023-02-01T08:39:43;6.80;92.90
67379;DHT22;54262;44.642;-0.974;2023-02-01T08:42:10;6.80;92.70
67379;DHT22;54262;44.642;-0.974;2023-02-01T08:44:55;6.90;93.10
67379;DHT22;54262;44.642;-0.974;2023-02-01T08:47:21;6.90;92.80
67379;DHT22;54262;44.642;-0.974;2023-02-01T08:49:46;7.00;92.70
67379;DHT22;54262;44.642;-0.974;2023-02-01T08:52:12;6.90;92.50
67379;DHT22;54262;44.642;-0.974;2023-02-01T08:54:38;6.90;92.90
67379;DHT22;54262;44.642;-0.974;2023-02-01T08:57:06;7.00;92.70
67379;DHT22;54262;44.642;-0.974;2023-02-01T08:59:32;7.10;92.00
67379;DHT22;54262;44.642;-0.974;2023-02-01T09:01:58;7.10;91.50
67379;DHT22;54262;44.642;-0.974;2023-02-01T09:04:23;7.10;91.60
67379;DHT22;54262;44.642;-0.974;2023-02-01T09:06:49;7.30;92.00
67379;DHT22;54262;44.642;-0.974;2023-02-01T09:09:15;7.30;91.30
67379;DHT22;54262;44.642;-0.974;2023-02-01T09:11:40;7.40;90.50
67379;DHT22;54262;44.642;-0.974;2023-02-01T09:14:06;7.40;90.30
67379;DHT22;54262;44.642;-0.974;2023-02-01T09:16:35;7.40;88.40
67379;DHT22;54262;44.642;-0.974;2023-02-01T09:19:03;7.50;89.30
67379;DHT22;54262;44.642;-0.974;2023-02-01T09:21:29;7.50;89.80
67379;DHT22;54262;44.642;-0.974;2023-02-01T09:23:55;7.50;90.00
67379;DHT22;54262;44.642;-0.974;2023-02-01T09:26:21;7.50;88.90
67379;DHT22;54262;44.642;-0.974;2023-02-01T09:28:47;7.60;89.10
67379;DHT22;54262;44.642;-0.974;2023-02-01T09:31:12;7.70;89.00
67379;DHT22;54262;44.642;-0.974;2023-02-01T09:33:38;7.90;89.20
67379;DHT22;54262;44.642;-0.974;2023-02-01T09:36:05;7.90;88.00
67379;DHT22;54262;44.642;-0.974;2023-02-01T09:38:31;7.90;89.70
67379;DHT22;54262;44.642;-0.974;2023-02-01T09:40:57;8.00;87.40
67379;DHT22;54262;44.642;-0.974;2023-02-01T09:43:48;7.90;85.30
67379;DHT22;54262;44.642;-0.974;2023-02-01T09:46:27;8.10;86.10
67379;DHT22;54262;44.642;-0.974;2023-02-01T09:48:55;8.20;83.80
67379;DHT22;54262;44.642;-0.974;2023-02-01T09:51:36;8.10;82.50
67379;DHT22;54262;44.642;-0.974;2023-02-01T09:54:09;8.30;84.80
67379;DHT22;54262;44.642;-0.974;2023-02-01T09:56:46;8.60;84.30
67379;DHT22;54262;44.642;-0.974;2023-02-01T09:59:41;8.60;82.20
67379;DHT22;54262;44.642;-0.974;2023-02-01T10:02:18;8.60;83.20
67379;DHT22;54262;44.642;-0.974;2023-02-01T10:04:46;8.80;82.30
67379;DHT22;54262;44.642;-0.974;2023-02-01T10:07:21;8.90;82.30
67379;DHT22;54262;44.642;-0.974;2023-02-01T10:10:00;9.00;81.70
67379;DHT22;54262;44.642;-0.974;2023-02-01T10:15:43;9.30;80.20
67379;DHT22;54262;44.642;-0.974;2023-02-01T10:23:37;9.40;78.40
67379;DHT22;54262;44.642;-0.974;2023-02-01T10:26:23;9.60;77.60
67379;DHT22;54262;44.642;-0.974;2023-02-01T10:28:58;9.70;77.30
67379;DHT22;54262;44.642;-0.974;2023-02-01T10:31:28;9.80;77.00
67379;DHT22;54262;44.642;-0.974;2023-02-01T10:33:59;9.80;76.80
67379;DHT22;54262;44.642;-0.974;2023-02-01T10:36:31;9.90;77.80
67379;DHT22;54262;44.642;-0.974;2023-02-01T10:39:11;10.10;77.50
67379;DHT22;54262;44.642;-0.974;2023-02-01T10:41:39;9.80;79.60
67379;DHT22;54262;44.642;-0.974;2023-02-01T10:44:14;9.80;78.80
67379;DHT22;54262;44.642;-0.974;2023-02-01T10:46:40;9.80;78.90
67379;DHT22;54262;44.642;-0.974;2023-02-01T10:49:16;9.60;80.00
67379;DHT22;54262;44.642;-0.974;2023-02-01T10:51:51;9.50;81.10
67379;DHT22;54262;44.642;-0.974;2023-02-01T10:54:33;9.60;80.10
67379;DHT22;54262;44.642;-0.974;2023-02-01T10:56:59;9.90;83.70
67379;DHT22;54262;44.642;-0.974;2023-02-01T10:59:27;10.40;85.20
67379;DHT22;54262;44.642;-0.974;2023-02-01T11:02:02;10.80;86.20
67379;DHT22;54262;44.642;-0.974;2023-02-01T11:04:34;11.00;78.30
67379;DHT22;54262;44.642;-0.974;2023-02-01T11:07:17;10.80;77.80
67379;DHT22;54262;44.642;-0.974;2023-02-01T11:09:50;10.90;78.90
67379;DHT22;54262;44.642;-0.974;2023-02-01T11:12:29;10.90;79.20
67379;DHT22;54262;44.642;-0.974;2023-02-01T11:15:15;11.00;77.90
67379;DHT22;54262;44.642;-0.974;2023-02-01T11:17:46;11.10;77.10
67379;DHT22;54262;44.642;-0.974;2023-02-01T11:20:16;11.30;78.30
67379;DHT22;54262;44.642;-0.974;2023-02-01T11:22:47;11.20;79.10
67379;DHT22;54262;44.642;-0.974;2023-02-01T11:25:16;11.30;77.80
67379;DHT22;54262;44.642;-0.974;2023-02-01T11:27:50;11.60;78.30
67379;DHT22;54262;44.642;-0.974;2023-02-01T11:30:22;11.50;77.20
67379;DHT22;54262;44.642;-0.974;2023-02-01T11:32:52;11.50;77.50
67379;DHT22;54262;44.642;-0.974;2023-02-01T11:35:20;11.30;77.10
67379;DHT22;54262;44.642;-0.974;2023-02-01T11:37:59;11.30;78.20
67379;DHT22;54262;44.642;-0.974;2023-02-01T11:40:29;11.40;77.90
67379;DHT22;54262;44.642;-0.974;2023-02-01T11:42:58;11.70;75.80
67379;DHT22;54262;44.642;-0.974;2023-02-01T11:45:26;11.80;75.00
67379;DHT22;54262;44.642;-0.974;2023-02-01T11:47:54;11.70;75.10
67379;DHT22;54262;44.642;-0.974;2023-02-01T11:50:30;11.70;75.60
67379;DHT22;54262;44.642;-0.974;2023-02-01T11:53:20;12.00;75.60
67379;DHT22;54262;44.642;-0.974;2023-02-01T11:55:56;12.00;73.80
67379;DHT22;54262;44.642;-0.974;2023-02-01T12:06:51;12.80;70.00
67379;DHT22;54262;44.642;-0.974;2023-02-01T12:23:13;13.20;61.70
67379;DHT22;54262;44.642;-0.974;2023-02-01T12:26:09;12.90;63.10
67379;DHT22;54262;44.642;-0.974;2023-02-01T12:42:40;12.60;57.50
67379;DHT22;54262;44.642;-0.974;2023-02-01T12:48:37;12.90;55.10
67379;DHT22;54262;44.642;-0.974;2023-02-01T12:51:18;12.80;58.00
67379;DHT22;54262;44.642;-0.974;2023-02-01T12:54:00;12.70;55.20
67379;DHT22;54262;44.642;-0.974;2023-02-01T12:56:49;12.70;55.20
67379;DHT22;54262;44.642;-0.974;2023-02-01T12:59:40;12.70;56.20
67379;DHT22;54262;44.642;-0.974;2023-02-01T13:05:08;12.70;55.40
67379;DHT22;54262;44.642;-0.974;2023-02-01T13:07:38;12.90;54.60
67379;DHT22;54262;44.642;-0.974;2023-02-01T13:10:36;12.90;53.60
67379;DHT22;54262;44.642;-0.974;2023-02-01T13:15:46;12.50;53.40
67379;DHT22;54262;44.642;-0.974;2023-02-01T13:18:20;12.60;55.20
67379;DHT22;54262;44.642;-0.974;2023-02-01T13:21:02;12.80;54.10
67379;DHT22;54262;44.642;-0.974;2023-02-01T13:23:31;12.90;54.30
67379;DHT22;54262;44.642;-0.974;2023-02-01T13:25:58;12.80;53.90
67379;DHT22;54262;44.642;-0.974;2023-02-01T13:39:22;12.70;53.50
67379;DHT22;54262;44.642;-0.974;2023-02-01T13:44:46;13.20;52.90
67379;DHT22;54262;44.642;-0.974;2023-02-01T13:47:24;12.90;52.80
67379;DHT22;54262;44.642;-0.974;2023-02-01T13:49:51;13.00;54.20
67379;DHT22;54262;44.642;-0.974;2023-02-01T13:52:29;12.80;53.00
67379;DHT22;54262;44.642;-0.974;2023-02-01T13:55:23;12.60;54.20
67379;DHT22;54262;44.642;-0.974;2023-02-01T13:58:14;12.70;53.90
67379;DHT22;54262;44.642;-0.974;2023-02-01T14:00:39;12.60;55.20
67379;DHT22;54262;44.642;-0.974;2023-02-01T14:10:55;12.60;54.60
67379;DHT22;54262;44.642;-0.974;2023-02-01T14:13:31;12.90;52.90
67379;DHT22;54262;44.642;-0.974;2023-02-01T14:21:31;13.50;50.20
67379;DHT22;54262;44.642;-0.974;2023-02-01T14:26:50;13.50;51.90
67379;DHT22;54262;44.642;-0.974;2023-02-01T14:32:20;13.40;49.70
67379;DHT22;54262;44.642;-0.974;2023-02-01T14:47:46;13.80;50.30
67379;DHT22;54262;44.642;-0.974;2023-02-01T14:55:41;12.90;53.10
67379;DHT22;54262;44.642;-0.974;2023-02-01T15:04:03;12.30;56.20
67379;DHT22;54262;44.642;-0.974;2023-02-01T15:09:09;12.10;57.30
67379;DHT22;54262;44.642;-0.974;2023-02-01T15:14:38;12.20;57.00
67379;DHT22;54262;44.642;-0.974;2023-02-01T15:17:25;12.20;56.20
67379;DHT22;54262;44.642;-0.974;2023-02-01T15:19:59;12.20;56.30
67379;DHT22;54262;44.642;-0.974;2023-02-01T15:22:26;12.30;55.70
67379;DHT22;54262;44.642;-0.974;2023-02-01T15:24:57;12.40;55.90
67379;DHT22;54262;44.642;-0.974;2023-02-01T15:27:26;12.40;55.50
67379;DHT22;54262;44.642;-0.974;2023-02-01T15:29:52;12.50;54.40
67379;DHT22;54262;44.642;-0.974;2023-02-01T15:32:38;12.50;54.20
67379;DHT22;54262;44.642;-0.974;2023-02-01T15:35:05;12.60;52.40
67379;DHT22;54262;44.642;-0.974;2023-02-01T15:37:51;12.90;52.00
67379;DHT22;54262;44.642;-0.974;2023-02-01T15:40:21;12.90;54.40
67379;DHT22;54262;44.642;-0.974;2023-02-01T15:45:20;12.90;52.20
67379;DHT22;54262;44.642;-0.974;2023-02-01T15:47:49;12.90;52.50
67379;DHT22;54262;44.642;-0.974;2023-02-01T15:50:17;12.90;53.40
67379;DHT22;54262;44.642;-0.974;2023-02-01T15:52:47;12.80;54.00
67379;DHT22;54262;44.642;-0.974;2023-02-01T15:55:36;12.90;57.80
67379;DHT22;54262;44.642;-0.974;2023-02-01T15:58:18;13.20;55.20
67379;DHT22;54262;44.642;-0.974;2023-02-01T16:00:50;13.00;55.80
67379;DHT22;54262;44.642;-0.974;2023-02-01T16:03:40;12.70;56.60
67379;DHT22;54262;44.642;-0.974;2023-02-01T16:11:28;13.00;55.10
67379;DHT22;54262;44.642;-0.974;2023-02-01T16:13:59;13.10;53.10
67379;DHT22;54262;44.642;-0.974;2023-02-01T16:16:26;13.40;56.60
67379;DHT22;54262;44.642;-0.974;2023-02-01T16:18:52;14.10;54.80
67379;DHT22;54262;44.642;-0.974;2023-02-01T16:21:18;13.40;52.40
67379;DHT22;54262;44.642;-0.974;2023-02-01T16:23:47;13.10;53.40
67379;DHT22;54262;44.642;-0.974;2023-02-01T16:26:13;12.60;55.20
67379;DHT22;54262;44.642;-0.974;2023-02-01T16:28:39;12.50;55.70
67379;DHT22;54262;44.642;-0.974;2023-02-01T16:31:05;12.60;56.20
67379;DHT22;54262;44.642;-0.974;2023-02-01T16:33:35;12.70;55.60
67379;DHT22;54262;44.642;-0.974;2023-02-01T16:36:01;12.60;56.50
67379;DHT22;54262;44.642;-0.974;2023-02-01T16:38:29;12.90;57.20
67379;DHT22;54262;44.642;-0.974;2023-02-01T16:40:55;12.60;59.00
67379;DHT22;54262;44.642;-0.974;2023-02-01T16:43:24;12.30;61.60
67379;DHT22;54262;44.642;-0.974;2023-02-01T16:45:53;13.60;60.60
67379;DHT22;54262;44.642;-0.974;2023-02-01T16:50:58;12.70;65.10
67379;DHT22;54262;44.642;-0.974;2023-02-01T16:53:27;13.10;63.90
67379;DHT22;54262;44.642;-0.974;2023-02-01T16:55:53;13.40;63.70
67379;DHT22;54262;44.642;-0.974;2023-02-01T16:58:20;13.30;63.20
67379;DHT22;54262;44.642;-0.974;2023-02-01T17:00:47;12.20;70.00
67379;DHT22;54262;44.642;-0.974;2023-02-01T17:03:14;11.80;72.40
67379;DHT22;54262;44.642;-0.974;2023-02-01T17:05:52;11.90;71.40
67379;DHT22;54262;44.642;-0.974;2023-02-01T17:08:34;11.80;71.60
67379;DHT22;54262;44.642;-0.974;2023-02-01T17:11:02;12.10;70.80
67379;DHT22;54262;44.642;-0.974;2023-02-01T17:13:28;11.80;72.60
67379;DHT22;54262;44.642;-0.974;2023-02-01T17:16:03;11.90;70.50
67379;DHT22;54262;44.642;-0.974;2023-02-01T17:18:32;11.50;74.40
67379;DHT22;54262;44.642;-0.974;2023-02-01T17:21:00;11.50;73.50
67379;DHT22;54262;44.642;-0.974;2023-02-01T17:23:27;12.00;72.50
67379;DHT22;54262;44.642;-0.974;2023-02-01T17:25:53;11.50;74.30
67379;DHT22;54262;44.642;-0.974;2023-02-01T17:28:19;11.20;76.60
67379;DHT22;54262;44.642;-0.974;2023-02-01T17:30:44;11.00;78.00
67379;DHT22;54262;44.642;-0.974;2023-02-01T17:35:42;11.10;76.30
67379;DHT22;54262;44.642;-0.974;2023-02-01T17:38:11;11.50;76.20
67379;DHT22;54262;44.642;-0.974;2023-02-01T17:40:37;11.40;76.40
67379;DHT22;54262;44.642;-0.974;2023-02-01T17:43:18;11.10;78.70
67379;DHT22;54262;44.642;-0.974;2023-02-01T17:45:59;11.10;78.40
67379;DHT22;54262;44.642;-0.974;2023-02-01T17:48:26;11.10;78.60
67379;DHT22;54262;44.642;-0.974;2023-02-01T17:50:52;10.90;79.70
67379;DHT22;54262;44.642;-0.974;2023-02-01T17:53:26;10.90;80.00
67379;DHT22;54262;44.642;-0.974;2023-02-01T17:55:52;10.80;80.20
67379;DHT22;54262;44.642;-0.974;2023-02-01T17:58:18;10.80;80.60
67379;DHT22;54262;44.642;-0.974;2023-02-01T18:00:45;10.80;80.70
67379;DHT22;54262;44.642;-0.974;2023-02-01T18:03:28;10.80;80.60
67379;DHT22;54262;44.642;-0.974;2023-02-01T18:05:56;10.80;80.60
67379;DHT22;54262;44.642;-0.974;2023-02-01T18:08:27;11.30;78.10
67379;DHT22;54262;44.642;-0.974;2023-02-01T18:10:55;11.30;78.20
67379;DHT22;54262;44.642;-0.974;2023-02-01T18:13:24;11.10;79.20
67379;DHT22;54262;44.642;-0.974;2023-02-01T18:15:49;10.90;80.30
67379;DHT22;54262;44.642;-0.974;2023-02-01T18:18:15;10.60;81.50
67379;DHT22;54262;44.642;-0.974;2023-02-01T18:20:43;10.60;81.70
67379;DHT22;54262;44.642;-0.974;2023-02-01T18:23:15;10.30;82.90
67379;DHT22;54262;44.642;-0.974;2023-02-01T18:25:42;10.20;83.50